Terminal Aerodrome Forecast
Issued by NWS St Louis, MO

Home | Current Version | Previous Version | Text Only | Print | Product List | Glossary On
Versions: 1 2 3 4 5 6 7 8 9 10 11 12 13 14 15 16
000
FTUS43 KLSX 280400 AAA
TAFCOU
TAF AMD
KCOU 280426Z 2804/2824 26010KT 6SM -SHRA VCTS BKN040CB OVC080
      TEMPO 2804/2805 3SM TSRA OVC030CB
     FM280600 30011G19KT P6SM SCT040 BKN080
     FM281500 29012KT P6SM SKC=

USA.gov is the U.S. government's official web portal to all federal, state and local government web resources and services.